Date,TemperatureHighF,TemperatureAvgF,TemperatureLowF,DewpointHighF,DewpointAvgF,DewpointLowF,HumidityHigh,HumidityAvg,HumidityLow,PressureMaxIn,PressureMinIn,WindSpeedMaxMPH,WindSpeedAvgMPH,GustSpeedMaxMPH,PrecipitationSumIn
2013-1-1,40.7,37.7,30.6,33.2,30.1,21.6,84,74,54,30.06,29.93,5,0,11,0.00
2013-1-2,40.4,34.7,27.2,30.7,24.7,18.5,92,68,42,30.25,30.01,3,0,7,0.00
2013-1-3,40.6,30.1,19.9,23.8,20.1,16.4,88,68,45,30.27,30.18,2,0,10,0.00
2013-1-4,44.3,33.6,25.4,24.9,21.0,17.9,74,60,44,30.27,30.17,8,1,17,0.00
2013-1-5,45.4,35.5,24.5,28.1,22.7,17.0,74,60,43,30.42,30.20,6,1,12,0.00
2013-1-6,46.4,38.1,24.8,32.6,28.6,21.8,90,69,56,30.22,30.07,5,1,13,0.00
2013-1-7,43.4,35.9,24.4,29.7,26.9,21.4,88,70,55,30.49,30.19,3,0,12,0.00
2013-1-8,54.3,36.7,24.4,35.4,27.4,21.0,89,71,39,30.47,30.37,5,1,11,0.00
2013-1-9,59.0,41.4,25.3,48.0,34.6,22.5,90,78,47,30.47,30.31,7,1,14,0.00
2013-1-10,54.9,42.7,30.0,37.1,32.4,25.8,87,68,42,30.62,30.47,3,0,7,0.00
2013-1-11,46.1,42.3,35.6,43.2,37.0,29.8,95,82,61,30.48,30.12,6,2,14,0.00
2013-1-12,71.3,50.4,35.6,59.0,46.7,34.6,97,88,65,30.20,30.10,6,0,13,0.01
2013-1-13,67.9,56.5,44.8,59.9,52.8,43.5,98,88,71,30.11,29.97,10,2,21,0.00
2013-1-14,62.7,53.6,38.2,57.1,48.0,36.5,94,82,72,30.30,29.97,8,4,16,0.13
2013-1-15,38.2,35.9,33.5,36.6,34.4,32.1,95,94,93,30.37,30.16,4,1,10,0.62
2013-1-16,47.9,38.7,32.8,46.0,37.1,31.5,96,94,81,30.17,29.88,6,1,12,0.18
2013-1-17,47.0,40.5,34.4,41.7,33.1,26.8,91,76,55,30.14,30.00,5,1,11,0.00
2013-1-18,41.4,33.8,28.0,29.2,19.5,11.2,81,57,34,30.50,30.14,6,1,13,0.00
2013-1-19,54.6,38.9,27.7,31.2,25.9,21.0,78,61,35,30.44,30.03,11,4,20,0.00
2013-1-20,55.4,43.4,26.2,33.7,25.1,13.3,68,50,31,30.09,29.90,7,2,23,0.00
2013-1-21,45.8,32.2,21.7,24.9,16.9,9.1,80,56,33,30.09,29.85,11,2,28,0.00
2013-1-22,25.4,18.2,12.7,11.0,0.5,-4.4,58,46,33,30.33,29.99,5,1,15,0.00
2013-1-23,30.0,20.3,11.8,16.9,4.4,-0.7,82,51,30,30.38,30.14,5,1,13,0.00
2013-1-24,25.6,19.0,11.2,18.8,9.0,3.1,92,67,42,30.59,30.09,5,1,15,0.00
2013-1-25,22.4,17.5,9.8,17.7,10.7,4.1,82,75,51,30.59,30.10,11,3,23,0.00
2013-1-26,38.9,26.8,19.0,24.8,19.5,15.5,88,75,52,30.48,30.09,3,0,12,0.00
2013-1-27,40.9,28.7,16.5,24.5,20.6,13.2,88,72,51,30.62,30.48,6,1,15,0.00
2013-1-28,54.8,40.1,31.0,45.6,35.4,24.5,94,84,71,30.48,30.15,11,3,19,0.13
2013-1-29,73.5,57.7,38.5,57.4,49.8,36.7,96,77,55,30.16,29.96,9,3,22,0.00
2013-1-30,67.3,59.1,52.8,61.0,55.2,49.1,97,87,76,29.96,29.28,18,6,39,1.98
2013-1-31,54.2,37.0,27.0,51.9,25.4,15.3,95,63,50,29.92,29.23,10,3,32,0.10
2013-2-1,29.9,22.4,14.3,25.8,9.5,3.1,88,58,42,30.42,29.82,4,1,18,0.00
2013-2-2,32.3,21.2,11.1,23.5,13.4,4.6,90,73,45,30.42,30.05,11,2,23,0.00
2013-2-3,36.1,30.0,25.2,27.1,22.0,13.4,91,73,55,30.05,29.85,6,1,24,0.00
2013-2-4,36.9,28.8,18.6,27.6,17.6,11.3,82,63,54,30.12,29.93,11,3,20,0.00
2013-2-5,48.7,39.9,30.2,36.3,32.0,26.4,87,74,61,29.95,29.86,8,2,18,0.00
2013-2-6,49.7,37.6,26.2,31.9,27.9,22.0,90,70,46,30.35,29.95,5,1,12,0.00
2013-2-7,39.2,32.2,24.1,30.3,26.3,20.8,89,79,67,30.43,30.20,6,1,13,0.00
2013-2-8,44.4,35.2,30.6,36.9,29.7,22.7,93,81,63,30.20,29.83,4,1,16,0.03
2013-2-9,45.0,33.3,22.4,23.0,17.8,14.9,76,54,34,30.42,30.06,5,1,14,0.00
2013-2-10,44.8,30.8,16.5,28.5,19.6,12.8,88,66,40,30.50,30.24,12,3,22,0.00
2013-2-11,62.0,49.0,35.8,51.7,37.7,24.7,92,69,33,30.24,29.79,11,4,25,0.01
2013-2-12,61.2,48.1,39.5,28.2,24.9,21.0,55,41,22,29.98,29.84,10,2,25,0.00
2013-2-13,43.5,35.3,31.7,33.3,28.4,22.4,95,77,47,29.95,29.66,5,0,15,0.10
2013-2-14,47.9,35.7,25.3,30.6,27.7,23.1,95,75,48,30.07,29.84,8,1,17,0.01
2013-2-15,54.7,36.4,22.8,39.6,30.0,20.0,100,79,47,30.09,29.93,12,1,22,0.13
2013-2-16,34.6,31.2,24.8,32.0,23.5,13.6,100,74,56,30.03,29.89,5,1,11,0.00
2013-2-17,26.7,22.4,18.4,15.9,8.5,5.0,72,55,43,30.29,29.93,5,1,16,0.00
2013-2-18,46.2,28.8,10.5,24.9,15.3,6.0,83,59,36,30.43,30.17,9,2,18,0.00
2013-2-19,49.6,39.0,33.8,40.6,29.3,17.3,91,69,48,30.17,29.75,12,4,27,0.04
2013-2-20,39.0,31.3,22.5,18.7,15.9,13.2,68,53,41,30.20,29.92,7,2,21,0.00
2013-2-21,41.1,28.4,17.3,21.4,16.5,11.0,78,62,44,30.37,30.17,6,1,14,0.00
2013-2-22,34.4,30.5,26.6,28.9,24.4,19.0,89,78,66,30.41,30.20,7,2,14,0.04
2013-2-23,50.4,38.7,32.4,41.7,33.9,27.9,92,83,71,30.21,29.85,5,1,11,0.00
2013-2-24,52.3,40.3,30.7,38.0,29.4,20.7,96,69,36,30.15,29.85,6,1,15,0.00
2013-2-25,41.4,31.1,20.1,23.8,20.3,14.6,81,65,47,30.26,30.15,7,1,13,0.00
2013-2-26,37.0,30.8,23.9,35.7,27.8,18.9,95,88,80,30.25,29.68,6,2,13,0.37
2013-2-27,49.7,41.9,35.9,43.4,35.0,32.7,96,78,55,29.74,29.62,7,2,16,0.01
2013-2-28,41.6,37.5,32.7,34.2,27.5,25.0,79,67,56,29.80,29.67,5,1,16,0.00
2013-3-1,37.4,35.2,31.6,28.2,25.6,20.5,77,68,62,29.95,29.80,4,1,10,0.00
2013-3-2,34.7,31.0,29.2,24.5,22.1,20.7,81,69,58,29.95,29.87,4,1,9,0.00
2013-3-3,39.0,29.2,21.9,22.4,17.6,13.2,76,62,48,30.03,29.88,5,1,13,0.00
2013-3-4,48.1,31.1,18.0,20.0,14.9,10.5,72,53,28,30.11,30.02,3,1,10,0.00
2013-3-5,47.9,37.1,28.1,33.1,26.1,17.3,94,66,44,30.12,29.75,5,1,11,0.02
2013-3-6,31.9,30.3,29.5,30.4,28.9,28.2,95,95,94,29.75,29.67,0,0,0,0.01
2013-3-7,40.3,37.3,34.3,29.7,28.0,26.2,77,69,58,30.26,30.10,6,2,13,0.20
2013-3-8,43.8,36.0,30.1,30.4,26.6,23.3,79,69,58,30.38,30.23,9,2,17,0.00
2013-3-9,52.0,35.0,20.0,32.1,26.0,17.4,91,72,41,30.44,30.33,3,0,9,0.00
2013-3-10,60.9,44.3,25.7,36.9,30.9,23.2,92,63,38,30.36,30.22,9,2,18,0.00
2013-3-11,55.7,50.2,43.0,49.9,37.0,28.0,89,62,42,30.23,29.88,14,4,28,0.03
2013-3-12,60.9,50.8,35.6,51.1,42.9,27.5,96,76,47,30.01,29.74,9,2,20,0.70
2013-3-13,47.5,35.8,27.9,31.3,24.3,17.3,87,65,40,30.15,29.95,11,1,31,0.00
2013-3-14,45.7,34.8,24.5,22.8,18.4,15.0,67,52,36,30.22,30.12,7,1,22,0.00
2013-3-15,59.0,42.1,23.4,38.0,27.1,16.9,78,56,42,30.17,29.84,12,2,25,0.00
2013-3-16,60.9,46.9,36.3,53.8,41.9,30.5,93,83,69,29.90,29.64,12,2,25,0.26
2013-3-17,39.5,33.9,29.8,36.8,32.4,28.5,95,94,90,30.28,29.90,4,2,9,0.19
2013-3-18,31.9,30.6,29.3,30.2,29.1,28.0,95,94,93,30.31,29.93,4,0,7,0.25
2013-3-19,56.0,41.1,30.1,40.0,26.4,10.4,96,64,26,30.00,29.80,10,2,30,0.19
2013-3-20,49.6,39.8,30.0,26.1,17.4,12.0,70,41,28,30.05,29.80,12,2,27,0.00
2013-3-21,35.5,28.7,22.9,27.7,16.1,10.6,86,60,43,29.99,29.81,6,1,15,0.00
2013-3-22,48.8,33.8,22.0,23.7,17.2,10.6,65,52,34,30.06,29.93,6,1,18,0.00
2013-3-23,54.3,37.6,19.9,26.0,21.0,15.4,83,54,29,30.10,29.94,5,0,12,0.00
2013-3-24,38.7,32.8,29.7,28.8,24.0,21.3,92,70,56,30.01,29.73,5,1,11,0.00
2013-3-25,36.6,31.5,27.9,33.7,28.9,26.0,95,90,71,29.77,29.56,3,0,9,0.55
2013-3-26,43.5,36.2,31.4,31.8,28.1,25.3,85,73,57,30.10,29.77,5,1,11,0.02
2013-3-27,44.6,36.8,28.2,30.3,26.8,22.8,85,68,51,30.21,30.10,4,1,17,0.00
2013-3-28,45.3,38.3,32.3,30.8,27.1,23.8,78,64,53,30.30,30.18,5,1,14,0.00
2013-3-29,54.4,42.2,29.7,34.4,29.0,25.6,86,62,36,30.32,30.18,5,1,14,0.00
2013-3-30,59.0,43.2,26.5,36.3,30.1,23.2,88,63,37,30.29,30.11,4,1,13,0.00
2013-3-31,55.2,44.1,35.6,49.7,40.4,30.9,94,87,78,30.12,29.77,5,1,12,0.12
2013-4-1,56.9,44.9,35.0,45.1,35.3,20.9,93,71,48,30.03,29.82,7,1,23,0.01
2013-4-2,49.2,38.3,27.9,22.0,19.2,15.1,74,48,28,30.21,30.03,7,1,18,0.00
2013-4-3,52.6,37.3,23.0,24.3,18.7,15.7,83,50,27,30.41,30.21,5,1,19,0.00
2013-4-4,43.7,33.5,22.2,31.1,22.3,16.6,94,66,41,30.44,30.09,10,2,20,0.16
2013-4-5,63.8,45.5,32.5,43.2,34.2,31.0,95,70,35,30.09,29.90,5,1,12,0.19
2013-4-6,57.9,44.7,32.5,31.6,25.2,17.8,73,48,27,30.32,30.09,8,1,19,0.00
2013-4-7,68.7,54.1,39.4,47.4,39.7,26.4,77,59,45,30.24,30.01,15,6,29,0.00
2013-4-8,76.6,61.5,41.4,54.1,47.3,37.6,89,62,39,30.11,29.95,13,3,24,0.00
2013-4-9,82.1,67.0,49.6,60.0,53.8,45.5,89,65,45,30.12,29.96,11,2,23,0.00
2013-4-10,87.2,70.1,49.9,62.7,54.9,46.3,90,62,36,30.02,29.81,13,2,24,0.00
2013-4-11,83.6,68.7,51.8,63.2,56.1,48.0,88,66,35,29.88,29.69,10,2,19,0.00
2013-4-12,75.5,66.0,53.1,63.6,54.4,39.5,96,69,37,29.79,29.55,10,3,24,0.52
2013-4-13,71.1,56.7,47.4,43.1,36.7,28.7,65,49,30,29.98,29.79,9,1,22,0.00
2013-4-14,72.5,55.8,34.8,47.5,39.3,29.6,85,56,39,30.12,29.98,4,1,11,0.00
2013-4-15,59.7,54.4,50.0,53.4,50.0,44.2,95,85,67,30.26,30.09,4,1,11,0.26
2013-4-16,73.4,61.7,53.4,62.6,56.6,51.7,95,84,66,30.29,30.14,10,5,20,0.00
2013-4-17,81.7,65.9,55.6,63.8,59.2,54.1,96,81,47,30.22,30.10,6,1,12,0.04
2013-4-18,72.8,64.7,59.9,63.5,59.0,55.4,93,82,66,30.17,29.95,10,4,23,0.00
2013-4-19,71.6,64.4,51.4,63.6,57.9,38.0,94,80,58,29.95,29.61,17,6,32,0.53
2013-4-20,59.9,49.1,38.3,39.0,31.4,25.0,68,51,34,30.35,29.82,4,1,16,0.01
2013-4-21,47.8,39.3,33.9,33.5,28.4,25.9,75,65,52,30.59,30.36,6,2,15,0.00
2013-4-22,57.3,44.7,30.4,37.2,32.7,27.3,90,65,40,30.57,30.36,5,1,12,0.00
2013-4-23,65.9,49.0,38.0,49.1,40.5,33.3,88,74,51,30.40,30.11,5,1,12,0.00
2013-4-24,74.9,59.2,42.6,58.5,49.9,39.7,92,74,49,30.13,29.81,17,5,36,0.01
2013-4-25,64.2,52.2,40.1,43.0,33.7,25.6,74,51,29,30.34,30.04,8,1,18,0.00
2013-4-26,65.2,52.5,34.4,43.2,37.0,29.5,83,57,38,30.48,30.33,4,1,12,0.00
2013-4-27,69.9,56.3,38.4,47.3,42.5,35.4,90,62,41,30.41,30.26,8,1,16,0.00
2013-4-28,56.8,52.5,50.1,50.1,46.6,-99.9,93,82,65,30.26,30.12,11,3,21,0.14
2013-4-29,65.2,56.2,49.3,56.3,51.6,47.1,93,85,69,30.14,30.00,5,1,13,0.02
2013-4-30,63.8,57.0,52.2,56.0,52.7,49.9,93,86,73,30.28,30.07,5,2,11,0.00
2013-5-1,71.7,59.2,50.7,53.1,47.2,39.2,95,69,32,30.39,30.28,5,2,11,0.01
2013-5-2,72.3,57.6,42.4,51.6,44.5,38.1,86,63,45,30.40,30.29,4,1,13,0.00
2013-5-3,64.1,52.7,37.9,49.9,43.8,36.0,94,73,54,30.38,30.26,5,1,17,0.00
2013-5-4,64.0,50.9,35.4,49.8,42.6,33.3,93,74,57,30.32,30.17,5,1,14,0.00
2013-5-5,63.7,52.6,36.8,45.1,41.4,33.9,91,67,47,30.23,30.11,6,2,18,0.00
2013-5-6,55.1,51.8,47.4,53.6,49.0,44.8,96,90,72,30.15,30.00,7,3,14,0.22
2013-5-7,60.4,55.0,50.9,58.4,53.9,49.5,97,96,92,30.00,29.89,6,3,14,0.90
2013-5-8,59.0,53.0,47.5,55.8,51.3,46.1,97,94,86,30.02,29.93,5,1,10,0.17
2013-5-9,77.2,60.0,44.5,60.2,51.3,43.7,98,77,41,30.05,29.97,4,0,14,0.01
2013-5-10,80.7,64.2,49.2,63.4,56.1,47.3,95,77,47,30.06,29.87,11,2,21,0.35
2013-5-11,76.2,65.3,58.6,61.6,58.0,52.3,96,79,55,29.90,29.73,9,2,19,0.00
2013-5-12,63.4,55.9,46.2,53.9,39.1,30.6,81,55,37,30.06,29.79,4,1,20,0.00
2013-5-13,58.4,46.4,36.8,36.8,32.5,28.1,85,60,35,30.22,30.05,4,0,13,0.00
2013-5-14,67.3,50.6,31.6,45.9,38.0,29.2,92,65,39,30.26,30.01,6,1,13,0.00
2013-5-15,92.8,70.0,46.7,66.6,52.1,43.0,87,58,29,30.03,29.75,10,2,25,0.00
2013-5-16,84.3,72.2,64.2,64.5,58.0,53.2,82,62,45,29.96,29.82,3,0,12,0.00
2013-5-17,79.6,66.8,53.3,62.9,58.7,51.0,95,77,50,30.11,29.95,6,1,16,0.11
2013-5-18,69.8,63.9,60.6,63.9,61.0,59.1,96,91,81,30.18,30.09,5,1,12,0.06
2013-5-19,67.4,62.3,58.6,63.6,60.1,57.1,96,92,86,30.18,30.08,6,1,11,0.00
2013-5-20,81.3,69.0,61.9,69.2,63.9,59.8,96,85,63,30.11,29.97,7,1,14,0.00
2013-5-21,86.2,71.7,56.6,70.2,64.5,55.5,98,80,55,30.01,29.87,8,1,16,0.00
2013-5-22,88.2,72.8,60.5,69.7,64.3,59.1,95,77,43,29.94,29.81,10,2,18,0.06
2013-5-23,79.7,68.6,60.7,66.8,62.9,58.8,96,83,60,29.89,29.73,8,2,18,0.13
2013-5-24,60.5,55.2,45.1,59.0,45.4,32.9,96,71,49,30.21,29.78,5,1,17,0.00
2013-5-25,66.6,51.0,36.2,40.3,34.7,30.5,83,57,28,30.29,30.18,5,1,14,0.00
2013-5-26,72.6,56.7,40.6,41.7,36.9,31.7,86,53,24,30.28,30.17,3,0,11,0.00
2013-5-27,64.6,55.1,39.2,52.2,43.7,35.2,87,67,48,30.32,30.19,5,0,9,0.00
2013-5-28,84.6,68.3,51.1,65.7,58.1,48.8,93,72,48,30.22,30.06,9,2,22,0.00
2013-5-29,87.8,75.1,61.1,66.2,62.5,58.0,91,67,44,30.14,30.06,10,2,19,0.00
2013-5-30,90.7,76.1,60.1,68.7,62.5,57.5,93,66,38,30.20,30.10,9,1,17,0.00
2013-5-31,87.6,74.4,55.5,66.0,62.1,53.3,94,68,39,30.16,30.02,11,2,23,0.00
2013-6-1,88.6,76.8,64.5,68.7,65.0,60.6,88,68,45,30.06,29.91,10,3,23,0.00
2013-6-2,81.8,73.8,67.6,69.7,64.9,61.3,87,74,60,29.93,29.82,10,4,22,0.00
2013-6-3,82.0,71.6,64.2,65.5,62.3,57.1,93,74,50,29.98,29.82,4,0,10,0.00
2013-6-4,76.4,65.2,55.7,57.2,50.7,44.6,88,62,38,30.14,29.98,6,1,13,0.00
2013-6-5,77.1,67.4,56.2,63.3,56.4,50.4,83,69,51,30.17,30.02,8,2,18,0.00
2013-6-6,67.5,62.2,59.1,61.3,58.6,55.2,97,88,73,30.04,29.85,5,1,11,1.34
2013-6-7,68.0,64.4,61.8,65.8,63.1,60.9,98,96,89,29.84,29.65,4,1,9,0.15
2013-6-8,80.6,67.9,57.5,65.2,60.9,56.4,96,80,51,30.09,29.79,5,1,12,0.03
2013-6-9,79.2,68.1,58.9,70.5,63.7,57.0,95,86,68,30.19,30.06,4,0,12,0.01
2013-6-10,79.2,68.2,64.0,72.0,66.5,62.6,98,95,76,30.10,29.81,7,2,15,1.28
2013-6-11,82.0,71.1,61.9,66.0,62.7,60.1,96,76,56,29.90,29.83,4,1,16,0.00
2013-6-12,89.9,76.3,61.8,72.2,66.4,59.2,93,73,51,29.91,29.79,5,1,13,0.00
2013-6-13,79.5,70.7,63.6,70.9,65.0,56.1,94,82,68,29.83,29.53,7,1,30,0.06
2013-6-14,75.3,66.5,56.6,59.1,55.3,50.9,82,68,52,30.04,29.69,5,1,16,0.01
2013-6-15,82.5,67.5,51.8,61.0,56.6,49.8,94,71,43,30.12,30.00,5,0,11,0.00
2013-6-16,81.8,70.3,57.9,68.7,62.3,55.1,92,77,60,30.05,29.92,7,1,14,0.01
2013-6-17,84.5,73.2,64.8,70.4,66.0,62.2,93,79,56,29.98,29.89,7,1,16,0.01
2013-6-18,71.8,66.5,62.1,68.1,63.5,58.6,95,90,75,29.95,29.82,4,0,11,0.24
2013-6-19,74.8,67.0,57.9,65.6,61.8,56.5,96,84,70,30.15,29.91,4,1,11,0.00
2013-6-20,78.0,70.2,62.8,66.7,64.0,61.1,95,82,66,30.24,30.15,10,2,17,0.00
2013-6-21,82.5,72.6,59.0,67.7,62.1,54.7,88,71,55,30.28,30.20,4,1,12,0.00
2013-6-22,85.8,73.0,59.0,68.4,62.7,57.0,94,73,44,30.25,30.12,5,1,14,0.00
2013-6-23,85.9,74.9,64.4,70.0,66.0,61.5,94,76,52,30.19,30.07,10,1,31,0.53
2013-6-24,86.0,72.1,62.5,72.6,66.4,61.6,97,84,57,30.17,30.05,7,1,19,0.50
2013-6-25,87.8,74.8,62.9,74.0,68.2,61.6,97,81,57,30.08,29.92,6,1,13,0.00
2013-6-26,85.7,73.8,66.9,73.6,69.2,64.5,96,86,65,29.94,29.83,13,1,27,0.27
2013-6-27,82.3,73.0,64.8,71.4,67.9,63.6,97,85,66,29.86,29.64,6,1,14,0.01
2013-6-28,74.6,70.3,68.7,68.7,66.1,65.4,90,87,81,29.68,29.59,3,1,7,0.00
2013-6-29,84.4,72.6,59.6,68.7,63.3,57.6,94,75,48,29.70,29.54,7,1,16,0.01
2013-6-30,84.4,73.0,63.5,73.0,67.5,62.3,97,84,63,29.84,29.69,8,1,19,0.11
2013-7-1,81.4,72.5,67.2,71.2,67.7,65.0,95,85,67,29.94,29.82,8,2,16,0.02
2013-7-2,77.1,72.0,69.2,71.2,69.1,67.2,94,91,81,30.15,29.95,8,2,17,0.11
2013-7-3,79.3,72.5,68.9,72.5,69.4,67.1,96,90,76,30.23,30.13,7,2,14,0.12
2013-7-4,83.9,75.3,67.4,74.3,70.1,66.4,97,85,68,30.24,30.15,9,3,18,0.04
2013-7-5,85.7,76.9,66.8,72.8,69.8,65.2,95,80,61,30.22,30.12,11,4,24,0.00
2013-7-6,87.8,78.0,67.3,73.6,69.3,65.7,96,76,53,30.20,30.07,9,2,19,0.00
2013-7-7,86.9,74.3,67.4,74.2,69.0,65.6,94,84,63,30.12,29.99,12,2,22,0.48
2013-7-8,82.4,73.4,63.2,71.6,66.7,61.8,96,81,59,30.14,30.06,6,1,14,0.05
2013-7-9,81.8,74.0,67.2,73.0,69.0,64.9,94,85,72,30.13,30.02,5,1,11,0.03
2013-7-10,83.5,74.9,70.0,75.3,70.9,68.3,95,88,74,30.04,29.89,9,1,20,0.00
2013-7-11,82.2,74.0,64.8,71.9,68.5,63.6,96,84,65,29.94,29.87,5,1,13,3.10
2013-7-12,72.1,65.7,61.3,65.5,63.1,60.4,97,92,77,30.09,29.93,4,1,12,0.88
2013-7-13,79.9,71.5,61.8,70.6,66.7,60.6,97,86,71,30.25,30.08,3,0,9,0.02
2013-7-14,85.3,75.8,64.5,71.9,69.0,63.6,98,81,61,30.34,30.25,7,1,16,0.05
2013-7-15,90.6,78.3,64.8,73.8,69.7,63.6,96,77,52,30.34,30.22,2,0,6,0.00
2013-7-16,89.7,79.3,66.7,76.4,71.7,65.2,96,79,62,30.28,30.18,4,1,10,0.00
2013-7-17,88.7,80.0,69.7,77.0,72.8,68.2,95,80,61,30.24,30.11,4,0,8,0.00
2013-7-18,93.8,81.2,69.6,77.4,73.2,68.1,96,78,56,30.15,30.02,3,0,9,0.00
2013-7-19,92.4,76.7,69.3,77.1,71.3,67.8,96,85,60,30.04,29.90,4,0,11,0.06
2013-7-20,91.5,77.4,68.0,74.6,70.2,66.5,97,80,54,29.93,29.84,7,1,16,0.01
2013-7-21,87.3,73.2,64.8,72.9,68.3,63.3,96,85,59,30.00,29.91,5,0,15,0.60
2013-7-22,85.3,74.8,67.3,75.0,70.1,65.8,97,86,68,29.96,29.76,9,2,18,0.01
2013-7-23,89.2,76.3,66.8,72.6,68.4,65.6,97,78,52,29.78,29.67,3,0,9,0.01
2013-7-24,79.7,72.4,66.6,69.5,65.4,58.5,92,79,65,29.93,29.70,4,1,11,0.00
2013-7-25,76.7,67.9,59.9,63.4,58.6,53.7,85,73,59,30.07,29.91,5,1,12,0.00
2013-7-26,82.2,68.4,53.4,65.5,59.6,51.7,95,75,50,30.12,30.01,4,1,12,0.00
2013-7-27,73.1,68.0,61.5,69.0,65.0,60.1,96,90,82,30.05,29.92,7,2,18,0.09
2013-7-28,84.5,73.1,64.9,68.4,64.7,60.2,94,77,52,30.00,29.88,4,1,14,0.01
2013-7-29,79.5,67.9,53.4,60.9,57.0,51.3,93,70,49,30.20,30.01,3,0,10,0.00
2013-7-30,81.5,68.6,54.2,64.0,58.5,51.5,92,72,50,30.25,30.15,4,1,12,0.00
2013-7-31,78.7,66.8,60.3,67.5,62.7,58.3,95,87,65,30.16,30.01,7,1,16,0.20
2013-8-1,82.2,70.8,63.2,72.4,65.9,62.0,97,85,65,30.01,29.84,3,0,9,0.15
2013-8-2,83.9,72.6,59.0,66.4,62.2,57.0,94,72,46,30.00,29.90,5,1,14,0.00
2013-8-3,79.3,68.8,61.0,67.7,62.5,58.5,93,81,62,29.99,29.92,3,0,9,0.01
2013-8-4,81.5,68.7,57.6,63.7,58.2,53.1,95,72,45,30.07,29.96,4,0,10,0.00
2013-8-5,78.6,66.3,51.7,62.9,57.3,49.8,94,74,51,30.13,30.01,6,1,14,0.00
2013-8-6,81.0,70.7,62.6,67.8,64.4,60.4,96,82,60,30.03,29.98,4,1,11,0.03
2013-8-7,81.3,73.6,67.4,71.6,68.5,65.3,95,85,71,30.04,29.98,8,2,20,0.00
2013-8-8,82.5,74.0,68.5,74.0,70.2,66.7,95,88,73,30.02,29.95,7,2,15,0.04
2013-8-9,90.7,78.4,70.1,74.1,70.7,67.9,96,79,57,29.97,29.89,7,2,16,0.00
2013-8-10,83.5,74.0,68.7,72.1,69.5,66.9,97,86,65,30.09,29.97,3,0,7,0.38
2013-8-11,84.2,73.8,67.0,74.2,69.9,65.5,96,88,67,30.11,29.99,6,1,10,0.27
2013-8-12,88.1,74.1,63.8,71.5,67.8,62.9,98,82,56,30.05,29.92,7,0,16,0.00
2013-8-13,85.6,73.8,68.0,70.2,66.7,62.8,96,80,59,29.92,29.76,3,0,10,0.04
2013-8-14,72.9,65.2,53.7,62.8,53.2,47.3,86,66,50,30.15,29.84,3,1,10,0.00
2013-8-15,74.5,61.2,46.0,55.8,51.6,44.4,95,73,47,30.22,30.11,3,0,10,0.00
2013-8-16,76.8,63.2,48.0,59.1,54.2,46.6,95,75,49,30.22,30.14,4,0,11,0.00
2013-8-17,75.7,64.2,49.7,61.6,56.3,48.0,95,78,55,30.27,30.21,4,1,13,0.02
2013-8-18,67.3,62.6,58.0,62.3,60.1,56.9,96,92,84,30.26,30.19,3,0,7,0.54
2013-8-19,78.9,68.7,61.9,69.7,65.0,60.7,97,88,72,30.21,30.06,4,0,9,0.02
2013-8-20,84.6,73.4,64.7,71.2,67.1,63.5,96,82,58,30.19,30.10,4,1,11,0.00
2013-8-21,84.9,70.6,63.5,73.2,66.4,62.3,97,88,64,30.21,30.09,8,1,16,1.08
2013-8-22,83.5,69.8,61.2,71.1,65.6,60.3,98,88,62,30.12,29.99,4,0,10,0.12
2013-8-23,69.2,65.5,58.4,67.7,63.5,56.6,97,93,80,30.16,29.97,7,1,15,0.68
2013-8-24,78.9,64.3,51.5,65.2,57.6,50.4,97,81,46,30.35,30.16,3,0,9,0.00
2013-8-25,80.6,65.8,52.1,64.3,58.0,50.7,96,78,47,30.42,30.28,5,1,10,0.00
2013-8-26,84.1,68.7,54.1,65.8,60.6,52.7,96,78,50,30.33,30.06,4,0,11,0.00
2013-8-27,88.4,73.5,62.4,73.4,66.7,60.3,96,81,56,30.07,29.93,2,0,9,0.00
2013-8-28,78.0,71.3,67.3,74.3,69.0,65.3,97,93,85,29.97,29.81,5,1,11,0.67
2013-8-29,81.0,73.2,66.0,71.8,69.2,64.2,97,88,68,30.03,29.85,4,1,11,0.03
2013-8-30,84.6,71.9,61.1,71.5,66.6,60.0,98,85,64,30.05,29.89,7,2,17,0.01
2013-8-31,86.8,73.6,65.6,74.1,68.3,64.1,96,84,63,29.92,29.82,6,1,12,0.00
2013-9-1,85.1,71.4,62.6,73.1,67.5,61.7,98,89,63,29.88,29.79,5,0,16,0.02
2013-9-2,87.3,75.1,64.8,73.1,69.0,63.6,98,83,60,29.84,29.74,5,1,12,0.00
2013-9-3,87.1,73.3,62.9,68.5,63.7,57.5,95,74,46,29.99,29.76,1,0,7,0.00
2013-9-4,79.6,66.4,52.0,63.6,58.6,50.3,95,77,55,30.11,29.98,4,0,9,0.00
2013-9-5,86.8,67.4,49.0,64.4,56.5,47.1,94,71,41,30.15,30.03,4,0,10,0.00
2013-9-6,76.3,63.9,51.8,57.1,54.4,49.4,92,73,50,30.25,30.13,3,0,9,0.00
2013-9-7,81.5,65.1,50.1,62.5,56.4,48.7,96,76,47,30.16,29.97,4,0,10,0.00
2013-9-8,89.9,71.8,57.3,69.5,62.5,53.5,91,74,48,30.03,29.89,2,0,9,0.00
2013-9-9,79.6,69.8,63.7,69.0,62.8,55.6,91,79,67,30.18,30.03,7,2,15,0.00
2013-9-10,90.3,75.5,63.6,74.0,68.3,61.8,95,80,55,30.20,30.10,5,1,13,0.00
2013-9-11,90.1,76.9,65.1,74.9,69.7,63.6,96,80,58,30.17,30.01,8,1,17,0.00
2013-9-12,90.6,74.7,64.4,74.2,67.5,63.2,96,80,51,30.03,29.76,5,1,15,0.01
2013-9-13,76.8,66.4,57.3,63.7,55.7,48.8,95,71,43,29.97,29.74,3,1,11,0.00
2013-9-14,57.6,52.2,46.8,49.3,45.6,42.9,87,78,73,30.12,29.97,1,0,5,0.00
2013-10-28,64.2,45.6,29.7,45.3,37.3,27.7,93,75,49,30.32,30.16,2,0,8,0.00
2013-10-29,66.2,49.0,33.6,49.3,41.6,31.8,94,77,53,30.42,30.30,2,0,6,0.00
2013-10-30,70.2,56.7,48.2,58.7,51.9,44.6,94,85,66,30.34,30.15,4,0,9,0.05
2013-10-31,69.6,59.5,49.7,60.0,54.2,48.0,100,83,64,30.18,29.74,11,4,29,0.00
2013-11-1,73.3,64.3,51.0,61.2,54.1,45.4,89,71,44,29.74,29.58,12,4,30,0.18
2013-11-2,67.5,52.3,40.0,49.5,41.2,35.6,98,70,38,29.95,29.68,4,0,15,0.00
2013-11-3,56.0,44.5,32.6,40.2,32.4,25.6,88,65,36,30.45,29.94,6,1,12,0.00
2013-11-4,46.5,34.3,28.1,29.2,24.9,22.0,85,69,50,30.65,30.45,4,1,11,0.00
2013-11-5,52.8,42.7,29.7,43.4,35.0,26.9,92,75,50,30.67,30.49,5,1,13,0.00
2013-11-6,68.1,55.6,47.8,52.2,47.7,42.6,90,76,56,30.49,30.08,10,3,24,0.00
2013-11-7,60.1,50.2,38.5,53.4,41.8,24.0,92,74,47,30.14,29.91,5,1,16,0.02
2013-11-8,49.9,39.9,26.9,29.9,25.6,21.9,83,57,39,30.37,30.14,4,0,16,0.00
2013-11-9,56.6,39.6,22.6,33.6,27.3,19.8,91,65,38,30.39,30.12,10,3,23,0.00
2013-11-10,64.3,42.0,29.8,39.3,29.3,24.7,86,65,29,30.31,30.03,5,1,21,0.00
2013-11-11,60.8,43.5,27.8,35.1,27.6,23.7,92,58,27,30.35,30.06,12,2,21,0.00
2013-11-12,49.4,36.5,24.2,37.7,23.6,14.2,73,59,48,30.48,30.01,10,2,19,0.00
2013-11-13,43.6,31.2,22.5,20.5,16.5,12.8,73,56,34,30.56,30.46,4,1,11,0.00
2013-11-14,60.3,38.1,20.4,27.3,20.0,13.7,78,52,25,30.46,30.28,6,1,18,0.00
2013-11-15,63.7,42.1,23.5,30.8,23.4,17.7,80,53,21,30.34,30.20,8,1,18,0.00
2013-11-20,44.8,33.1,25.4,27.2,24.0,20.7,87,71,47,30.58,30.42,5,0,10,0.00
2013-11-21,48.1,40.6,26.5,41.2,34.7,22.0,85,79,71,30.59,30.42,6,1,12,0.00
2013-11-22,64.2,54.7,45.6,54.7,48.7,40.4,88,80,69,30.42,30.05,8,2,20,0.00
2013-11-23,54.7,43.7,25.9,47.6,28.8,15.3,84,59,29,30.25,30.06,6,2,16,0.00
2013-11-24,29.1,22.8,15.2,16.9,7.0,4.6,69,51,37,30.61,30.25,7,1,17,0.00
2013-11-25,38.9,23.4,11.5,15.5,10.9,6.4,82,61,33,30.61,30.38,9,2,20,0.00
2013-11-26,37.8,33.9,31.5,36.2,26.4,14.7,95,76,45,30.40,29.79,5,1,13,1.32
2013-11-27,37.4,32.9,23.9,35.1,27.6,13.5,96,81,62,30.15,29.63,6,1,15,0.06
2013-11-28,39.3,27.6,17.3,20.8,16.4,12.3,83,64,42,30.48,30.14,3,0,8,0.00
2013-11-29,42.4,28.5,19.9,26.3,21.0,16.5,89,74,50,30.75,30.49,2,0,6,0.00
2013-11-30,38.8,27.1,16.4,25.9,20.6,14.0,92,77,59,30.75,30.40,7,1,16,0.00
2013-12-1,53.1,36.1,20.2,34.3,27.0,17.3,90,71,43,30.40,30.05,4,0,9,0.00
2013-12-2,52.8,44.1,39.4,38.8,36.0,33.8,83,74,57,30.05,29.86,4,0,9,0.00
2013-12-3,56.7,44.2,34.6,43.8,37.3,32.0,91,78,61,30.03,29.89,2,0,6,0.00
2013-12-4,62.5,48.6,35.6,51.4,43.6,33.3,93,83,66,30.08,29.99,7,1,12,0.00
2013-12-5,67.3,57.3,48.5,58.0,53.2,46.9,95,87,72,30.06,29.94,8,2,17,0.00
2013-12-6,62.1,49.0,36.5,60.4,47.4,35.2,96,94,89,30.17,29.88,10,4,17,0.67
2013-12-7,40.0,34.8,27.4,36.7,30.8,23.2,100,86,71,30.57,30.14,6,2,13,0.01
2013-12-8,31.1,27.1,25.0,30.9,24.2,20.7,100,89,77,30.59,30.33,5,1,12,0.13
2013-12-9,50.8,35.5,30.1,47.5,33.8,28.6,96,94,86,30.34,30.05,3,0,8,0.46
2013-12-10,39.1,32.4,27.5,35.7,26.4,13.5,96,80,51,30.27,30.00,5,0,18,0.24
2013-12-11,41.4,30.1,18.4,24.6,18.5,12.4,78,62,48,30.43,30.27,6,1,16,0.05
2013-12-12,35.1,28.0,20.2,20.8,11.7,6.4,69,51,32,30.45,30.32,4,0,14,0.00
2013-12-17,50.6,36.8,25.2,37.7,30.4,22.9,93,78,58,30.13,29.94,7,2,20,0.00
2013-12-18,42.3,34.2,28.8,23.6,21.5,19.4,73,60,44,30.26,30.04,7,1,15,0.00
2013-12-19,64.1,44.1,28.7,35.1,27.2,20.2,74,54,32,30.24,30.13,7,2,17,0.00
2013-12-20,62.2,45.0,29.7,40.2,32.6,25.8,88,65,35,30.15,30.03,9,1,17,0.00
2013-12-21,67.5,58.0,44.2,59.9,48.7,37.4,81,71,60,30.08,29.89,14,5,28,0.00
2013-12-22,68.3,62.3,57.3,62.4,58.2,54.7,95,87,79,30.01,29.83,16,6,35,0.45
2013-12-23,59.0,49.9,31.8,56.8,45.7,26.4,97,86,67,30.24,29.93,5,1,11,0.51
2013-12-24,37.6,28.4,17.8,27.4,18.9,7.9,90,68,50,30.52,30.22,5,1,15,0.00
2013-12-25,32.6,22.8,13.3,17.5,12.8,8.2,85,66,50,30.60,30.39,7,1,14,0.00
2013-12-26,48.0,32.1,21.8,27.5,19.1,13.5,75,60,39,30.42,30.28,6,1,12,0.00
2013-12-27,51.7,32.6,19.9,26.8,20.9,15.7,86,65,33,30.49,30.36,7,1,14,0.00
2013-12-28,55.2,36.8,19.7,32.1,24.6,16.6,90,65,35,30.42,30.18,6,1,18,0.00
2013-12-29,48.3,41.3,37.1,46.1,37.6,30.0,96,87,71,30.18,29.63,3,0,14,1.55
2013-12-30,44.3,38.1,28.2,36.2,30.8,24.8,89,75,61,30.18,29.88,3,0,14,0.00
2013-12-31,43.1,34.3,28.5,27.1,22.2,16.0,89,62,43,30.35,30.14,8,2,18,0.00
2014-1-1,51.9,35.0,24.2,32.2,23.9,17.7,86,65,37,30.43,30.14,8,2,19,0.00
2014-1-2,34.5,30.1,26.9,29.1,26.0,22.5,93,85,66,30.13,29.67,2,0,8,0.00